createdAt,value
2018-11-20T00:02:18.038Z,4.85
2018-11-20T00:03:32.556Z,4.83
2018-11-20T00:04:46.955Z,4.83
2018-11-20T00:07:46.863Z,4.81
2018-11-20T00:09:02.064Z,4.82
2018-11-20T00:10:17.191Z,4.81
2018-11-20T00:11:31.667Z,4.81
2018-11-20T00:12:46.118Z,4.82
2018-11-20T00:14:00.334Z,4.83
2018-11-20T00:15:14.039Z,4.8
2018-11-20T00:16:43.103Z,4.75
2018-11-20T00:17:57.578Z,4.71
2018-11-20T00:19:26.622Z,4.7
2018-11-20T00:20:40.813Z,4.68
2018-11-20T00:21:55.783Z,4.68
2018-11-20T00:23:11.053Z,4.66
2018-11-20T00:24:25.543Z,4.65
2018-11-20T00:25:40.297Z,4.64
2018-11-20T00:26:54.529Z,4.62
2018-11-20T00:28:08.719Z,4.58
2018-11-20T00:29:23.681Z,4.54
2018-11-20T00:30:38.378Z,4.53
2018-11-20T00:31:53.087Z,4.52
2018-11-20T00:33:08.068Z,4.53
2018-11-20T00:34:22.497Z,4.54
2018-11-20T00:35:37.408Z,4.5
2018-11-20T00:36:51.849Z,4.49
2018-11-20T00:38:06.341Z,4.45
2018-11-20T00:39:20.899Z,4.44
2018-11-20T00:40:34.818Z,4.44
2018-11-20T00:41:49.236Z,4.45
2018-11-20T00:43:03.933Z,4.44
2018-11-20T00:44:18.121Z,4.41
2018-11-20T00:45:32.590Z,4.39
2018-11-20T00:46:46.525Z,4.39
2018-11-20T00:48:01.511Z,4.35
2018-11-20T00:49:16.285Z,4.35
2018-11-20T00:50:29.954Z,4.36
2018-11-20T00:51:43.957Z,4.36
2018-11-20T00:52:58.115Z,4.35
2018-11-20T00:54:11.831Z,4.33
2018-11-20T00:55:26.530Z,4.34
2018-11-20T00:56:40.727Z,4.34
2018-11-20T00:57:55.656Z,4.36
2018-11-20T00:59:09.771Z,4.35
2018-11-20T01:00:24.313Z,4.36
2018-11-20T01:01:38.800Z,4.35
2018-11-20T01:03:07.659Z,4.37
2018-11-20T01:04:22.268Z,4.39
2018-11-20T01:05:37.755Z,4.43
2018-11-20T01:07:09.407Z,4.44
2018-11-20T01:08:24.085Z,4.44
2018-11-20T01:09:38.745Z,4.43
2018-11-20T01:10:52.693Z,4.4
2018-11-20T01:12:07.121Z,4.42
2018-11-20T01:13:36.500Z,4.42
2018-11-20T01:14:51.067Z,4.43
2018-11-20T01:16:05.491Z,4.44
2018-11-20T01:17:19.195Z,4.46
2018-11-20T01:18:33.367Z,4.46
2018-11-20T01:19:47.375Z,4.45
2018-11-20T01:21:02.385Z,4.43
2018-11-20T01:22:16.923Z,4.44
2018-11-20T01:23:31.649Z,4.43
2018-11-20T01:24:46.131Z,4.42
2018-11-20T01:26:00.295Z,4.4
2018-11-20T01:27:15.353Z,4.44
2018-11-20T01:28:30.240Z,4.45
2018-11-20T01:29:59.917Z,4.47
2018-11-20T01:31:14.783Z,4.49
2018-11-20T01:32:29.366Z,4.48
2018-11-20T01:33:43.838Z,4.47
2018-11-20T01:34:58.550Z,4.46
2018-11-20T01:36:13.132Z,4.45
2018-11-20T01:37:27.236Z,4.45
2018-11-20T01:38:42.147Z,4.47
2018-11-20T01:39:56.516Z,4.46
2018-11-20T01:41:11.097Z,4.46
2018-11-20T01:42:26.387Z,4.44
2018-11-20T01:43:39.967Z,4.41
2018-11-20T01:44:54.284Z,4.39
2018-11-20T01:46:08.710Z,4.38
2018-11-20T01:47:23.465Z,4.37
2018-11-20T01:48:37.774Z,4.4
2018-11-20T01:49:52.556Z,4.41
2018-11-20T01:51:07.124Z,4.45
2018-11-20T01:52:22.211Z,4.47
2018-11-20T01:53:36.651Z,4.45
2018-11-20T01:54:50.819Z,4.44
2018-11-20T01:56:05.574Z,4.46
2018-11-20T01:57:19.868Z,4.48
2018-11-20T01:58:34.285Z,4.47
2018-11-20T01:59:49.017Z,4.47
2018-11-20T02:01:03.501Z,4.45
2018-11-20T02:02:17.499Z,4.44
2018-11-20T02:03:31.710Z,4.45
2018-11-20T02:04:46.689Z,4.45
2018-11-20T02:06:00.585Z,4.43
2018-11-20T02:07:14.996Z,4.43
2018-11-20T02:08:29.799Z,4.41
2018-11-20T02:09:44.504Z,4.43
2018-11-20T02:10:58.688Z,4.43
2018-11-20T02:12:12.936Z,4.43
2018-11-20T02:13:27.610Z,4.42
2018-11-20T02:14:41.662Z,4.42
2018-11-20T02:15:55.934Z,4.39
2018-11-20T02:17:10.817Z,4.4
2018-11-20T02:18:25.267Z,4.38
2018-11-20T02:19:39.705Z,4.38
2018-11-20T02:20:54.574Z,4.38
2018-11-20T02:22:10.660Z,4.39
2018-11-20T02:23:25.690Z,4.38
2018-11-20T02:24:40.258Z,4.4
2018-11-20T02:25:55.326Z,4.4
2018-11-20T02:27:10.003Z,4.44
2018-11-20T02:28:24.444Z,4.47
2018-11-20T02:29:39.198Z,4.49
2018-11-20T02:30:53.543Z,4.48
2018-11-20T02:32:08.203Z,4.49
2018-11-20T02:33:23.379Z,4.5
2018-11-20T02:34:38.018Z,4.5
2018-11-20T02:35:52.957Z,4.52
2018-11-20T02:37:07.750Z,4.54
2018-11-20T02:38:22.165Z,4.56
2018-11-20T02:39:37.249Z,4.61
2018-11-20T02:40:51.673Z,4.65
2018-11-20T02:42:06.482Z,4.64
2018-11-20T02:43:21.117Z,4.66
2018-11-20T02:44:36.069Z,4.69
2018-11-20T02:45:50.478Z,4.7
2018-11-20T02:47:35.323Z,4.69
2018-11-20T02:48:49.553Z,4.69
2018-11-20T02:50:04.220Z,4.66
2018-11-20T02:51:18.741Z,4.62
2018-11-20T02:52:33.707Z,4.6
2018-11-20T02:53:48.429Z,4.61
2018-11-20T02:55:16.404Z,4.62
2018-11-20T02:56:31.367Z,4.63
2018-11-20T02:57:45.752Z,4.6
2018-11-20T02:59:00.154Z,4.59
2018-11-20T03:00:14.403Z,4.58
2018-11-20T03:01:29.326Z,4.59
2018-11-20T03:02:43.239Z,4.57
2018-11-20T03:03:57.456Z,4.56
2018-11-20T03:05:13.783Z,4.57
2018-11-20T03:06:28.525Z,4.58
2018-11-20T03:07:42.391Z,4.58
2018-11-20T03:08:56.562Z,4.57
2018-11-20T03:10:11.433Z,4.57
2018-11-20T03:11:26.303Z,4.6
2018-11-20T03:12:41.053Z,4.61
2018-11-20T03:13:55.673Z,4.62
2018-11-20T03:15:10.156Z,4.64
2018-11-20T03:16:24.558Z,4.64
2018-11-20T03:17:38.765Z,4.66
2018-11-20T03:18:52.776Z,4.69
2018-11-20T03:20:07.594Z,4.73
2018-11-20T03:21:22.020Z,4.73
2018-11-20T03:22:36.545Z,4.75
2018-11-20T03:23:51.137Z,4.77
2018-11-20T03:25:06.165Z,4.75
2018-11-20T03:26:34.598Z,4.73
2018-11-20T03:27:50.111Z,4.72
2018-11-20T03:29:04.763Z,4.69
2018-11-20T03:30:19.200Z,4.69
2018-11-20T03:31:33.920Z,4.69
2018-11-20T03:32:47.814Z,4.71
2018-11-20T03:34:02.017Z,4.71
2018-11-20T03:35:17.026Z,4.72
2018-11-20T03:36:31.561Z,4.71
2018-11-20T03:37:45.575Z,4.71
2018-11-20T03:38:59.795Z,4.7
2018-11-20T03:40:13.969Z,4.72
2018-11-20T03:41:27.649Z,4.72
2018-11-20T03:42:42.096Z,4.72
2018-11-20T03:44:11.479Z,4.72
2018-11-20T03:45:25.997Z,4.72
2018-11-20T03:46:40.678Z,4.7
2018-11-20T03:47:55.122Z,4.7
2018-11-20T03:49:10.623Z,4.71
2018-11-20T03:50:24.845Z,4.72
2018-11-20T03:51:39.303Z,4.75
2018-11-20T03:52:53.457Z,4.77
2018-11-20T03:54:07.847Z,4.76
2018-11-20T03:55:21.885Z,4.76
2018-11-20T03:56:36.329Z,4.78
2018-11-20T03:57:51.471Z,4.76
2018-11-20T03:59:20.200Z,4.73
2018-11-20T04:00:34.965Z,4.72
2018-11-20T04:01:49.363Z,4.73
2018-11-20T04:03:03.843Z,4.75
2018-11-20T04:04:18.067Z,4.77
2018-11-20T04:06:16.347Z,4.76
2018-11-20T04:07:30.526Z,4.73
2018-11-20T04:08:44.689Z,4.72
2018-11-20T04:09:58.632Z,4.73
2018-11-20T04:11:12.802Z,4.72
2018-11-20T04:12:27.445Z,4.73
2018-11-20T04:13:41.588Z,4.76
2018-11-20T04:14:56.216Z,4.75
2018-11-20T04:16:10.693Z,4.73
2018-11-20T04:17:25.470Z,4.71
2018-11-20T04:18:39.642Z,4.71
2018-11-20T04:19:55.203Z,4.72
2018-11-20T04:21:10.855Z,4.73
2018-11-20T04:22:26.430Z,4.72
2018-11-20T04:23:40.623Z,4.71
2018-11-20T04:24:54.623Z,4.73
2018-11-20T04:26:09.472Z,4.74
2018-11-20T04:27:24.317Z,4.74
2018-11-20T04:28:52.933Z,4.74
2018-11-20T04:30:07.402Z,4.74
2018-11-20T04:31:21.877Z,4.71
2018-11-20T04:32:36.399Z,4.71
2018-11-20T04:33:50.079Z,4.69
2018-11-20T04:35:04.469Z,4.68
2018-11-20T04:36:19.380Z,4.67
2018-11-20T04:37:34.053Z,4.65
2018-11-20T04:38:49.221Z,4.64
2018-11-20T04:40:04.270Z,4.65
2018-11-20T04:41:19.123Z,4.6
2018-11-20T04:42:47.811Z,4.6
2018-11-20T04:44:02.330Z,4.58
2018-11-20T04:45:32.893Z,4.58
2018-11-20T04:46:47.089Z,4.59
2018-11-20T04:48:01.270Z,4.63
2018-11-20T04:49:16.457Z,4.66
2018-11-20T04:50:30.653Z,4.67
2018-11-20T04:51:44.328Z,4.68
2018-11-20T04:52:58.518Z,4.7
2018-11-20T04:54:24.691Z,4.71
2018-11-20T04:55:38.642Z,4.71
2018-11-20T04:56:53.114Z,4.71
2018-11-20T04:58:07.791Z,4.72
2018-11-20T04:59:21.990Z,4.75
2018-11-20T05:00:36.532Z,4.77
2018-11-20T05:01:50.983Z,4.77
2018-11-20T05:03:05.194Z,4.76
2018-11-20T05:04:20.107Z,4.73
2018-11-20T05:05:34.898Z,4.71
2018-11-20T05:06:49.287Z,4.73
2018-11-20T05:08:04.774Z,4.72
2018-11-20T05:09:18.808Z,4.73
2018-11-20T05:10:33.151Z,4.71
2018-11-20T05:11:47.602Z,4.73
2018-11-20T05:13:01.630Z,4.73
2018-11-20T05:14:15.943Z,4.72
2018-11-20T05:15:30.469Z,4.71
2018-11-20T05:16:45.145Z,4.72
2018-11-20T05:17:59.849Z,4.74
2018-11-20T05:19:14.048Z,4.76
2018-11-20T05:20:27.937Z,4.79
2018-11-20T05:21:41.631Z,4.8
2018-11-20T05:22:55.801Z,4.8
2018-11-20T05:24:09.721Z,4.82
2018-11-20T05:25:23.877Z,4.81
2018-11-20T05:26:38.845Z,4.83
2018-11-20T05:28:08.320Z,4.83
2018-11-20T05:29:23.256Z,4.81
2018-11-20T05:30:37.768Z,4.81
2018-11-20T05:31:52.321Z,4.82
2018-11-20T05:33:06.270Z,4.83
2018-11-20T05:34:20.241Z,4.83
2018-11-20T05:35:34.926Z,4.85
2018-11-20T05:36:49.473Z,4.85
2018-11-20T05:38:04.062Z,4.87
2018-11-20T05:39:18.568Z,4.88
2018-11-20T05:40:33.158Z,4.89
2018-11-20T05:41:47.660Z,4.87
2018-11-20T05:43:02.369Z,4.87
2018-11-20T05:44:44.044Z,4.86
2018-11-20T05:45:59.170Z,4.86
2018-11-20T05:47:14.214Z,4.86
2018-11-20T05:48:28.660Z,4.88
2018-11-20T05:49:42.592Z,4.86
2018-11-20T05:50:57.284Z,4.86
2018-11-20T05:52:11.213Z,4.88
2018-11-20T05:53:34.694Z,4.91
2018-11-20T05:54:49.204Z,4.91
2018-11-20T05:56:03.017Z,4.91
2018-11-20T05:57:17.210Z,4.9
2018-11-20T05:58:31.672Z,4.89
2018-11-20T05:59:46.523Z,4.91
2018-11-20T06:01:01.024Z,4.91
2018-11-20T06:02:15.214Z,4.92
2018-11-20T06:03:31.753Z,4.9
2018-11-20T06:04:46.226Z,4.87
2018-11-20T06:06:15.702Z,4.87
2018-11-20T06:07:29.665Z,4.86
2018-11-20T06:08:44.400Z,4.82
2018-11-20T06:09:59.074Z,4.81
2018-11-20T06:11:13.645Z,4.8
2018-11-20T06:12:27.867Z,4.79
2018-11-20T06:13:42.306Z,4.79
2018-11-20T06:14:57.075Z,4.8
2018-11-20T06:16:11.268Z,4.8
2018-11-20T06:17:25.313Z,4.82
2018-11-20T06:18:40.082Z,4.84
2018-11-20T06:19:54.498Z,4.82
2018-11-20T06:21:08.929Z,4.8
2018-11-20T06:22:23.874Z,4.8
2018-11-20T06:23:38.770Z,4.81
2018-11-20T06:24:53.189Z,4.78
2018-11-20T06:26:07.855Z,4.79
2018-11-20T06:27:22.103Z,4.82
2018-11-20T06:28:36.842Z,4.81
2018-11-20T06:29:52.072Z,4.81
2018-11-20T06:31:06.514Z,4.82
2018-11-20T06:32:35.898Z,4.81
2018-11-20T06:33:49.824Z,4.8
2018-11-20T06:35:04.966Z,4.81
2018-11-20T06:36:18.976Z,4.79
2018-11-20T06:37:33.156Z,4.81
2018-11-20T06:38:46.844Z,4.83
2018-11-20T06:40:01.026Z,4.86
2018-11-20T06:41:16.408Z,4.9
2018-11-20T06:42:32.191Z,4.93
2018-11-20T06:43:46.818Z,4.97
2018-11-20T06:45:01.261Z,4.99
2018-11-20T06:46:15.762Z,5.02
2018-11-20T06:47:30.359Z,5.03
2018-11-20T06:48:44.510Z,5.04
2018-11-20T06:49:59.110Z,5.07
2018-11-20T06:51:13.143Z,5.1
2018-11-20T06:52:27.584Z,5.11
2018-11-20T06:53:43.105Z,5.14
2018-11-20T06:54:57.432Z,5.14
2018-11-20T06:56:11.933Z,5.13
2018-11-20T06:57:41.172Z,5.13
2018-11-20T06:58:55.997Z,5.13
2018-11-20T07:00:10.562Z,5.06
2018-11-20T07:01:24.590Z,5.06
2018-11-20T07:02:39.762Z,5.04
2018-11-20T07:04:11.468Z,5.06
2018-11-20T07:05:26.170Z,5.02
2018-11-20T07:06:40.584Z,5.01
2018-11-20T07:07:55.379Z,5.01
2018-11-20T07:09:11.636Z,5.02
2018-11-20T07:10:26.332Z,5.02
2018-11-20T07:11:40.753Z,5.02
2018-11-20T07:12:57.191Z,5.01
2018-11-20T07:14:11.725Z,4.99
2018-11-20T07:15:26.259Z,4.99
2018-11-20T07:16:42.039Z,5.01
2018-11-20T07:17:57.033Z,5.01
2018-11-20T07:19:11.928Z,5.02
2018-11-20T07:20:26.941Z,5.06
2018-11-20T07:21:41.528Z,5.09
2018-11-20T07:22:57.261Z,5.14
2018-11-20T07:24:13.517Z,5.18
2018-11-20T07:25:28.550Z,5.17
2018-11-20T07:26:44.100Z,5.14
2018-11-20T07:28:14.408Z,5.13
2018-11-20T07:29:30.128Z,5.12
2018-11-20T07:30:47.471Z,5.12
2018-11-20T07:32:03.612Z,5.09
2018-11-20T07:33:18.025Z,5.06
2018-11-20T07:34:32.412Z,5.04
2018-11-20T07:35:47.556Z,5
2018-11-20T07:37:03.299Z,5
2018-11-20T07:38:18.390Z,5.02
2018-11-20T07:39:32.767Z,5.07
2018-11-20T07:40:47.223Z,5.1
2018-11-20T07:42:02.899Z,5.11
2018-11-20T07:43:31.254Z,5.13
2018-11-20T07:44:46.673Z,5.14
2018-11-20T07:46:01.163Z,5.13
2018-11-20T07:47:16.059Z,5.13
2018-11-20T07:48:31.997Z,5.11
2018-11-20T07:49:46.494Z,5.12
2018-11-20T07:51:01.242Z,5.12
2018-11-20T07:52:29.453Z,5.12
2018-11-20T07:53:44.027Z,5.12
2018-11-20T07:54:58.523Z,5.13
2018-11-20T07:56:13.204Z,5.13
2018-11-20T07:57:28.471Z,5.11
2018-11-20T07:58:43.155Z,5.14
2018-11-20T07:59:58.388Z,5.16
2018-11-20T08:01:14.354Z,5.18
2018-11-20T08:02:29.010Z,5.21
2018-11-20T08:03:44.038Z,5.27
2018-11-20T08:04:58.518Z,5.29
2018-11-20T08:06:13.381Z,5.3
2018-11-20T08:07:28.430Z,5.31
2018-11-20T08:08:43.084Z,5.32
2018-11-20T08:09:57.031Z,5.32
2018-11-20T08:11:11.798Z,5.34
2018-11-20T08:12:26.252Z,5.34
2018-11-20T08:13:40.721Z,5.35
2018-11-20T08:14:55.421Z,5.32
2018-11-20T08:16:10.822Z,5.32
2018-11-20T08:17:25.973Z,5.32
2018-11-20T08:18:40.677Z,5.34
2018-11-20T08:19:55.617Z,5.4
2018-11-20T08:21:09.589Z,5.43
2018-11-20T08:22:24.528Z,5.46
2018-11-20T08:23:39.210Z,5.49
2018-11-20T08:24:53.574Z,5.51
2018-11-20T08:26:07.475Z,5.52
2018-11-20T08:27:22.351Z,5.51
2018-11-20T08:28:36.628Z,5.52
2018-11-20T08:29:50.684Z,5.51
2018-11-20T08:31:05.392Z,5.52
2018-11-20T08:32:20.164Z,5.52
2018-11-20T08:33:34.078Z,5.51
2018-11-20T08:34:48.653Z,5.48
2018-11-20T08:36:03.409Z,5.48
2018-11-20T08:37:17.577Z,5.47
2018-11-20T08:38:31.886Z,5.47
2018-11-20T08:39:46.596Z,5.49
2018-11-20T08:41:01.102Z,5.52
2018-11-20T08:42:14.905Z,5.57
2018-11-20T08:43:30.250Z,5.61
2018-11-20T08:44:45.072Z,5.65
2018-11-20T08:45:59.855Z,5.69
2018-11-20T08:48:44.758Z,5.75
2018-11-20T08:49:59.231Z,5.77
2018-11-20T08:51:13.177Z,5.77
2018-11-20T08:52:27.638Z,5.73
2018-11-20T08:53:41.971Z,5.7
2018-11-20T08:54:57.592Z,5.69
2018-11-20T08:56:12.042Z,5.68
2018-11-20T08:57:26.493Z,5.71
2018-11-20T08:58:40.664Z,5.71
2018-11-20T08:59:54.962Z,5.69
2018-11-20T09:01:09.364Z,5.68
2018-11-20T09:02:24.951Z,5.68
2018-11-20T09:03:39.309Z,5.66
2018-11-20T09:04:53.970Z,5.68
2018-11-20T09:06:08.319Z,5.68
2018-11-20T09:07:23.380Z,5.71
2018-11-20T09:08:37.367Z,5.7
2018-11-20T09:09:51.933Z,5.69
2018-11-20T09:11:11.754Z,5.75
2018-11-20T09:12:45.654Z,5.8
2018-11-20T09:13:59.936Z,5.85
2018-11-20T09:15:15.655Z,5.85
2018-11-20T09:16:30.232Z,5.9
2018-11-20T09:17:45.448Z,5.93
2018-11-20T09:18:59.858Z,5.97
2018-11-20T09:20:14.120Z,6
2018-11-20T09:21:38.899Z,6.03
2018-11-20T09:22:53.662Z,6.05
2018-11-20T09:24:07.826Z,6.06
2018-11-20T09:25:22.453Z,6.14
2018-11-20T09:26:37.866Z,6.12
2018-11-20T09:27:52.127Z,6.14
2018-11-20T09:29:07.158Z,6.16
2018-11-20T09:30:21.196Z,6.16
2018-11-20T09:31:35.416Z,6.15
2018-11-20T09:32:50.005Z,6.17
2018-11-20T09:34:03.707Z,6.16
2018-11-20T09:35:18.744Z,6.19
2018-11-20T09:36:34.990Z,6.21
2018-11-20T09:37:49.209Z,6.24
2018-11-20T09:39:04.088Z,6.28
2018-11-20T09:40:18.557Z,6.32
2018-11-20T09:41:33.191Z,6.32
2018-11-20T09:42:46.773Z,6.34
2018-11-20T09:44:01.394Z,6.31
2018-11-20T09:45:16.124Z,6.3
2018-11-20T09:46:30.444Z,6.3
2018-11-20T09:47:45.762Z,6.29
2018-11-20T09:48:59.799Z,6.27
2018-11-20T09:50:14.772Z,6.28
2018-11-20T09:51:28.986Z,6.28
2018-11-20T09:52:43.020Z,6.29
2018-11-20T09:53:57.808Z,6.32
2018-11-20T09:55:11.774Z,6.36
2018-11-20T09:56:26.444Z,6.38
2018-11-20T09:57:40.615Z,6.39
2018-11-20T09:58:54.842Z,6.38
2018-11-20T10:00:09.407Z,6.41
2018-11-20T10:01:23.408Z,6.42
2018-11-20T10:02:37.662Z,6.47
2018-11-20T10:03:52.316Z,6.53
2018-11-20T10:05:07.634Z,6.52
2018-11-20T10:06:22.444Z,6.55
2018-11-20T10:07:36.886Z,6.57
2018-11-20T10:08:51.500Z,6.55
2018-11-20T10:10:06.623Z,6.46
2018-11-20T10:11:21.370Z,6.39
2018-11-20T10:12:35.944Z,6.35
2018-11-20T10:13:50.743Z,6.31
2018-11-20T10:15:06.113Z,6.3
2018-11-20T10:16:21.515Z,6.29
2018-11-20T10:17:35.197Z,6.31
2018-11-20T10:18:50.186Z,6.31
2018-11-20T10:20:04.787Z,6.3
2018-11-20T10:21:19.698Z,6.33
2018-11-20T10:22:34.662Z,6.33
2018-11-20T10:23:50.256Z,6.32
2018-11-20T10:25:05.644Z,6.3
2018-11-20T10:26:21.568Z,6.32
2018-11-20T10:27:36.613Z,6.35
2018-11-20T10:28:50.551Z,6.41
2018-11-20T10:30:05.014Z,6.47
2018-11-20T10:31:18.432Z,6.54
2018-11-20T10:32:32.232Z,6.59
2018-11-20T10:33:46.985Z,6.63
2018-11-20T10:35:02.375Z,6.63
2018-11-20T10:36:17.462Z,6.67
2018-11-20T10:40:43.001Z,6.68
2018-11-20T10:41:56.659Z,6.68
2018-11-20T10:43:11.234Z,6.71
2018-11-20T10:44:24.654Z,6.75
2018-11-20T10:45:38.915Z,6.78
2018-11-20T10:46:53.163Z,6.78
2018-11-20T10:48:06.679Z,6.75
2018-11-20T10:49:36.319Z,6.75
2018-11-20T10:50:50.545Z,6.71
2018-11-20T10:52:04.636Z,6.71
2018-11-20T10:56:33.688Z,6.75
2018-11-20T10:57:48.008Z,6.73
2018-11-20T10:59:03.739Z,6.71
2018-11-20T11:00:34.331Z,6.71
2018-11-20T11:02:18.240Z,6.69
2018-11-20T11:03:33.453Z,6.67
2018-11-20T11:04:48.474Z,6.66
2018-11-20T11:06:17.984Z,6.67
2018-11-20T11:07:33.349Z,6.67
2018-11-20T11:08:49.816Z,6.68
2018-11-20T11:10:33.505Z,6.72
2018-11-20T11:12:03.068Z,6.75
2018-11-20T11:13:17.988Z,6.78
2018-11-20T11:14:33.735Z,6.74
2018-11-20T11:15:48.515Z,6.72
2018-11-20T11:17:02.755Z,6.74
2018-11-20T11:18:17.421Z,6.77
2018-11-20T11:19:31.680Z,6.78
2018-11-20T11:20:45.424Z,6.77
2018-11-20T11:22:00.241Z,6.76
2018-11-20T11:23:14.447Z,6.73
2018-11-20T11:24:29.190Z,6.7
2018-11-20T11:25:43.741Z,6.72
2018-11-20T11:26:58.642Z,6.72
2018-11-20T11:28:13.077Z,6.77
2018-11-20T11:30:25.488Z,6.86
2018-11-20T11:31:41.643Z,6.88
2018-11-20T11:32:56.355Z,6.91
2018-11-20T11:35:40.034Z,6.96
2018-11-20T11:36:54.786Z,7.02
2018-11-20T11:38:08.758Z,7.02
2018-11-20T11:39:23.293Z,7.03
2018-11-20T11:40:38.016Z,7.05
2018-11-20T11:41:52.882Z,7.06
2018-11-20T11:43:06.631Z,7.07
2018-11-20T11:44:21.601Z,7.05
2018-11-20T11:45:36.450Z,7.09
2018-11-20T11:46:50.454Z,7.11
2018-11-20T11:48:04.423Z,7.13
2018-11-20T11:49:19.473Z,7.13
2018-11-20T11:50:33.734Z,7.16
2018-11-20T11:51:48.479Z,7.15
2018-11-20T11:53:03.083Z,7.15
2018-11-20T11:54:19.440Z,7.15
2018-11-20T11:55:48.554Z,7.16
2018-11-20T11:57:02.758Z,7.19
2018-11-20T11:58:18.699Z,7.24
2018-11-20T11:59:31.778Z,7.29
2018-11-20T12:00:46.237Z,7.3
2018-11-20T12:03:13.948Z,7.28
2018-11-20T12:04:28.161Z,7.3
2018-11-20T12:05:42.736Z,7.31
2018-11-20T12:07:12.517Z,7.31
2018-11-20T12:08:26.990Z,7.31
2018-11-20T12:09:41.196Z,7.33
2018-11-20T12:14:11.541Z,7.29
2018-11-20T12:15:26.583Z,7.25
2018-11-20T12:16:41.520Z,7.22
2018-11-20T12:17:55.294Z,7.21
2018-11-20T12:19:09.758Z,7.23
2018-11-20T12:20:31.878Z,7.21
2018-11-20T12:21:46.417Z,7.21
2018-11-20T12:23:01.628Z,7.2
2018-11-20T12:24:16.602Z,7.17
2018-11-20T12:25:32.552Z,7.17
2018-11-20T12:26:47.707Z,7.16
2018-11-20T12:28:02.692Z,7.14
2018-11-20T12:29:19.628Z,7.12
2018-11-20T12:30:42.092Z,7.09
2018-11-20T12:31:59.135Z,7.03
2018-11-20T12:33:13.869Z,7.02
2018-11-20T12:34:28.649Z,7
2018-11-20T12:35:45.125Z,7.03
2018-11-20T12:37:01.887Z,7.05
2018-11-20T12:38:19.563Z,7.07
2018-11-20T12:39:34.194Z,7.11
2018-11-20T12:40:53.305Z,7.13
2018-11-20T12:42:07.341Z,7.14
2018-11-20T12:43:22.592Z,7.15
2018-11-20T12:44:41.128Z,7.14
2018-11-20T12:45:57.172Z,7.17
2018-11-20T12:47:15.838Z,7.17
2018-11-20T12:48:31.866Z,7.18
2018-11-20T12:49:49.678Z,7.17
2018-11-20T12:51:21.677Z,7.16
2018-11-20T12:52:37.474Z,7.17
2018-11-20T12:53:51.254Z,7.2
2018-11-20T12:55:22.553Z,7.23
2018-11-20T12:56:36.864Z,7.26
2018-11-20T12:57:51.611Z,7.31
2018-11-20T12:59:06.202Z,7.34
2018-11-20T13:00:20.184Z,7.38
2018-11-20T13:01:35.094Z,7.37
2018-11-20T13:02:49.326Z,7.32
2018-11-20T13:04:18.676Z,7.31
2018-11-20T13:05:34.151Z,7.32
2018-11-20T13:06:48.187Z,7.32
2018-11-20T13:08:03.269Z,7.32
2018-11-20T13:10:07.226Z,7.31
2018-11-20T13:11:22.508Z,7.29
2018-11-20T13:12:37.614Z,7.28
2018-11-20T13:13:56.550Z,7.25
2018-11-20T13:15:12.477Z,7.23
2018-11-20T13:16:27.484Z,7.24
2018-11-20T13:17:41.979Z,7.25
2018-11-20T13:18:57.074Z,7.24
2018-11-20T13:20:13.090Z,7.23
2018-11-20T13:21:27.958Z,7.21
2018-11-20T13:22:43.420Z,7.19
2018-11-20T13:24:00.363Z,7.2
2018-11-20T13:25:19.251Z,7.19
2018-11-20T13:26:33.179Z,7.17
2018-11-20T13:27:47.955Z,7.14
2018-11-20T13:29:02.498Z,7.14
2018-11-20T13:30:16.970Z,7.12
2018-11-20T13:31:31.972Z,7.13
2018-11-20T13:32:47.411Z,7.11
2018-11-20T13:34:02.393Z,7.07
2018-11-20T13:35:17.876Z,7.02
2018-11-20T13:36:32.667Z,7
2018-11-20T13:37:47.662Z,6.97
2018-11-20T13:39:03.511Z,6.93
2018-11-20T13:40:19.585Z,6.92
2018-11-20T13:41:33.803Z,6.9
2018-11-20T13:42:49.730Z,6.89
2018-11-20T13:44:04.241Z,6.88
2018-11-20T13:45:19.463Z,6.86
2018-11-20T13:46:34.497Z,6.84
2018-11-20T13:47:48.733Z,6.84
2018-11-20T13:49:05.070Z,6.8
2018-11-20T13:50:19.354Z,6.75
2018-11-20T13:51:34.847Z,6.73
2018-11-20T13:52:51.947Z,6.72
2018-11-20T13:54:06.937Z,6.76
2018-11-20T13:55:21.759Z,6.79
2018-11-20T13:56:41.445Z,6.8
2018-11-20T13:57:56.167Z,6.83
2018-11-20T13:59:10.562Z,6.83
2018-11-20T14:00:39.974Z,6.82
2018-11-20T14:01:54.934Z,6.8
2018-11-20T14:03:08.880Z,6.79
2018-11-20T14:04:23.887Z,6.8
2018-11-20T14:05:38.583Z,6.79
2018-11-20T14:06:52.800Z,6.8
2018-11-20T14:08:07.424Z,6.81
2018-11-20T14:09:37.787Z,6.85
2018-11-20T14:10:52.513Z,6.9
2018-11-20T14:12:06.665Z,6.93
2018-11-20T14:13:20.889Z,6.91
2018-11-20T14:14:35.339Z,6.9
2018-11-20T14:15:49.568Z,6.88
2018-11-20T14:17:03.890Z,6.85
2018-11-20T14:18:18.402Z,6.83
2018-11-20T14:19:36.140Z,6.86
2018-11-20T14:20:50.380Z,6.84
2018-11-20T14:22:04.583Z,6.85
2018-11-20T14:23:18.372Z,6.88
2018-11-20T14:24:32.709Z,6.88
2018-11-20T14:25:47.411Z,6.87
2018-11-20T14:27:16.287Z,6.87
2018-11-20T14:28:30.257Z,6.88
2018-11-20T14:29:45.333Z,6.87
2018-11-20T14:30:59.323Z,6.87
2018-11-20T14:32:14.082Z,6.87
2018-11-20T14:33:29.024Z,6.86
2018-11-20T14:34:43.340Z,6.87
2018-11-20T14:35:57.853Z,6.85
2018-11-20T14:37:12.416Z,6.84
2018-11-20T14:38:26.942Z,6.82
2018-11-20T14:39:41.159Z,6.77
2018-11-20T14:40:55.117Z,6.75
2018-11-20T14:42:12.089Z,6.74
2018-11-20T14:43:26.630Z,6.72
2018-11-20T14:44:41.145Z,6.71
2018-11-20T14:45:55.575Z,6.71
2018-11-20T14:47:09.824Z,6.73
2018-11-20T14:48:24.673Z,6.73
2018-11-20T14:49:41.006Z,6.71
2018-11-20T14:50:53.611Z,6.72
2018-11-20T14:52:07.882Z,6.76
2018-11-20T14:53:22.156Z,6.79
2018-11-20T14:54:36.972Z,6.82
2018-11-20T14:57:20.089Z,6.85
2018-11-20T14:58:34.932Z,6.85
2018-11-20T14:59:49.210Z,6.85
2018-11-20T15:01:03.167Z,6.84
2018-11-20T15:02:17.960Z,6.86
2018-11-20T15:03:32.677Z,6.85
2018-11-20T15:04:47.413Z,6.86
2018-11-20T15:06:46.487Z,6.74
2018-11-20T15:08:01.875Z,6.72
2018-11-20T15:09:16.073Z,6.68
2018-11-20T15:10:30.445Z,6.64
2018-11-20T15:11:45.636Z,6.59
2018-11-20T15:12:59.602Z,6.54
2018-11-20T15:14:14.069Z,6.52
2018-11-20T15:15:28.522Z,6.53
2018-11-20T15:16:42.493Z,6.56
2018-11-20T15:17:56.985Z,6.56
2018-11-20T15:19:11.456Z,6.56
2018-11-20T15:20:25.671Z,6.53
2018-11-20T15:21:39.919Z,6.55
2018-11-20T15:22:54.332Z,6.57
2018-11-20T15:24:09.671Z,6.59
2018-11-20T15:25:24.595Z,6.59
2018-11-20T15:26:39.172Z,6.63
2018-11-20T15:27:56.194Z,6.67
2018-11-20T15:29:11.482Z,6.68
2018-11-20T15:30:26.859Z,6.69
2018-11-20T15:31:42.041Z,6.73
2018-11-20T15:33:11.698Z,6.76
2018-11-20T15:34:26.161Z,6.76
2018-11-20T15:35:40.850Z,6.74
2018-11-20T15:36:54.851Z,6.73
2018-11-20T15:38:09.315Z,6.72
2018-11-20T15:39:23.651Z,6.7
2018-11-20T15:40:38.160Z,6.69
2018-11-20T15:41:52.909Z,6.69
2018-11-20T15:43:12.316Z,6.69
2018-11-20T15:44:26.743Z,6.68
2018-11-20T15:45:42.974Z,6.65
2018-11-20T15:47:12.055Z,6.63
2018-11-20T15:49:58.052Z,6.58
2018-11-20T15:51:13.120Z,6.59
2018-11-20T15:52:27.073Z,6.6
2018-11-20T15:53:42.394Z,6.6
2018-11-20T15:54:56.895Z,6.62
2018-11-20T15:56:11.381Z,6.6
2018-11-20T15:57:26.155Z,6.59
2018-11-20T15:58:43.170Z,6.6
2018-11-20T15:59:58.549Z,6.61
2018-11-20T16:01:12.874Z,6.65
2018-11-20T16:02:35.072Z,6.6
2018-11-20T16:03:49.556Z,6.61
2018-11-20T16:05:19.040Z,6.62
2018-11-20T16:06:34.328Z,6.62
2018-11-20T16:07:49.219Z,6.62
2018-11-20T16:09:03.183Z,6.61
2018-11-20T16:10:18.297Z,6.59
2018-11-20T16:11:33.061Z,6.59
2018-11-20T16:12:46.837Z,6.54
2018-11-20T16:14:01.726Z,6.49
2018-11-20T16:15:16.247Z,6.47
2018-11-20T16:16:30.484Z,6.44
2018-11-20T16:17:44.969Z,6.41
2018-11-20T16:18:59.157Z,6.35
2018-11-20T16:20:13.650Z,6.35
2018-11-20T16:21:28.446Z,6.34
2018-11-20T16:22:43.423Z,6.37
2018-11-20T16:23:57.917Z,6.41
2018-11-20T16:25:12.675Z,6.4
2018-11-20T16:26:27.066Z,6.45
2018-11-20T16:27:41.635Z,6.46
2018-11-20T16:28:56.255Z,6.43
2018-11-20T16:30:11.283Z,6.41
2018-11-20T16:31:26.253Z,6.35
2018-11-20T16:32:40.776Z,6.32
2018-11-20T16:33:55.051Z,6.27
2018-11-20T16:35:09.799Z,6.27
2018-11-20T16:36:24.253Z,6.26
2018-11-20T16:37:38.996Z,6.27
2018-11-20T16:38:53.223Z,6.25
2018-11-20T16:41:42.086Z,6.19
2018-11-20T16:42:56.849Z,6.21
2018-11-20T16:44:11.674Z,6.22
2018-11-20T16:45:26.158Z,6.24
2018-11-20T16:46:41.464Z,6.25
2018-11-20T16:49:27.100Z,6.21
2018-11-20T16:50:41.683Z,6.19
2018-11-20T16:51:56.528Z,6.16
2018-11-20T16:53:10.828Z,6.13
2018-11-20T16:54:27.389Z,6.1
2018-11-20T16:55:57.366Z,6.1
2018-11-20T16:57:12.188Z,6.11
2018-11-20T16:58:26.932Z,6.09
2018-11-20T16:59:41.735Z,6.09
2018-11-20T17:00:55.873Z,6.08
2018-11-20T17:02:12.438Z,6.08
2018-11-20T17:03:27.828Z,6.06
2018-11-20T17:04:42.961Z,6.01
2018-11-20T17:05:57.495Z,5.97
2018-11-20T17:07:11.736Z,5.92
2018-11-20T17:08:27.457Z,5.9
2018-11-20T17:09:42.010Z,5.89
2018-11-20T17:10:56.738Z,5.89
2018-11-20T17:12:11.615Z,5.88
2018-11-20T17:13:25.546Z,5.91
2018-11-20T17:14:39.984Z,5.94
2018-11-20T17:15:54.745Z,5.97
2018-11-20T17:17:08.973Z,5.98